sensor_id;sensor_type;location;lat;lon;timestamp;P1;durP1;ratioP1;P2;durP2;ratioP2
39242;SDS011;29823;47.404;8.566;2023-12-14T00:00:19;4.70;;;1.48;;
39242;SDS011;29823;47.404;8.566;2023-12-14T00:02:47;1.30;;;1.20;;
39242;SDS011;29823;47.404;8.566;2023-12-14T00:05:14;2.10;;;1.13;;
39242;SDS011;29823;47.404;8.566;2023-12-14T00:07:42;1.50;;;1.02;;
39242;SDS011;29823;47.404;8.566;2023-12-14T00:10:11;3.72;;;1.25;;
39242;SDS011;29823;47.404;8.566;2023-12-14T00:12:39;1.92;;;1.15;;
39242;SDS011;29823;47.404;8.566;2023-12-14T00:15:07;1.42;;;1.02;;
39242;SDS011;29823;47.404;8.566;2023-12-14T00:17:35;1.38;;;0.90;;
39242;SDS011;29823;47.404;8.566;2023-12-14T00:20:03;1.02;;;0.93;;
39242;SDS011;29823;47.404;8.566;2023-12-14T00:22:32;1.65;;;1.10;;
39242;SDS011;29823;47.404;8.566;2023-12-14T00:25:00;4.50;;;1.10;;
39242;SDS011;29823;47.404;8.566;2023-12-14T00:27:29;5.00;;;1.23;;
39242;SDS011;29823;47.404;8.566;2023-12-14T00:29:57;2.47;;;1.52;;
39242;SDS011;29823;47.404;8.566;2023-12-14T00:32:24;1.20;;;1.10;;
39242;SDS011;29823;47.404;8.566;2023-12-14T00:34:52;2.40;;;1.80;;
39242;SDS011;29823;47.404;8.566;2023-12-14T00:37:19;2.95;;;1.80;;
39242;SDS011;29823;47.404;8.566;2023-12-14T00:39:47;1.90;;;1.38;;
39242;SDS011;29823;47.404;8.566;2023-12-14T00:42:15;2.17;;;1.80;;
39242;SDS011;29823;47.404;8.566;2023-12-14T00:44:44;3.33;;;1.83;;
39242;SDS011;29823;47.404;8.566;2023-12-14T00:47:12;2.88;;;1.80;;
39242;SDS011;29823;47.404;8.566;2023-12-14T00:49:39;2.22;;;1.60;;
39242;SDS011;29823;47.404;8.566;2023-12-14T00:52:07;2.35;;;1.58;;
39242;SDS011;29823;47.404;8.566;2023-12-14T00:54:35;2.22;;;1.52;;
39242;SDS011;29823;47.404;8.566;2023-12-14T00:57:02;2.38;;;1.50;;
39242;SDS011;29823;47.404;8.566;2023-12-14T00:59:30;3.03;;;1.63;;
39242;SDS011;29823;47.404;8.566;2023-12-14T01:02:00;3.90;;;1.63;;
39242;SDS011;29823;47.404;8.566;2023-12-14T01:04:27;3.83;;;1.85;;
39242;SDS011;29823;47.404;8.566;2023-12-14T01:06:55;4.60;;;1.90;;
39242;SDS011;29823;47.404;8.566;2023-12-14T01:09:22;2.40;;;1.77;;
39242;SDS011;29823;47.404;8.566;2023-12-14T01:11:50;2.75;;;1.90;;
39242;SDS011;29823;47.404;8.566;2023-12-14T01:14:18;4.88;;;3.03;;
39242;SDS011;29823;47.404;8.566;2023-12-14T01:16:45;8.38;;;3.60;;
39242;SDS011;29823;47.404;8.566;2023-12-14T01:19:14;4.32;;;3.13;;
39242;SDS011;29823;47.404;8.566;2023-12-14T01:21:42;6.18;;;3.70;;
39242;SDS011;29823;47.404;8.566;2023-12-14T01:24:10;4.50;;;3.45;;
39242;SDS011;29823;47.404;8.566;2023-12-14T01:26:37;5.00;;;3.25;;
39242;SDS011;29823;47.404;8.566;2023-12-14T01:29:05;7.00;;;3.60;;
39242;SDS011;29823;47.404;8.566;2023-12-14T01:31:33;3.97;;;2.70;;
39242;SDS011;29823;47.404;8.566;2023-12-14T01:34:01;3.83;;;2.83;;
39242;SDS011;29823;47.404;8.566;2023-12-14T01:36:30;3.85;;;2.92;;
39242;SDS011;29823;47.404;8.566;2023-12-14T01:38:57;4.35;;;2.42;;
39242;SDS011;29823;47.404;8.566;2023-12-14T01:41:25;4.43;;;2.95;;
39242;SDS011;29823;47.404;8.566;2023-12-14T01:43:52;6.03;;;2.70;;
39242;SDS011;29823;47.404;8.566;2023-12-14T01:46:20;3.03;;;2.35;;
39242;SDS011;29823;47.404;8.566;2023-12-14T01:48:48;7.22;;;2.88;;
39242;SDS011;29823;47.404;8.566;2023-12-14T01:51:15;3.22;;;2.05;;
39242;SDS011;29823;47.404;8.566;2023-12-14T01:53:44;4.03;;;2.25;;
39242;SDS011;29823;47.404;8.566;2023-12-14T01:56:12;3.90;;;2.35;;
39242;SDS011;29823;47.404;8.566;2023-12-14T01:58:40;3.75;;;2.35;;
39242;SDS011;29823;47.404;8.566;2023-12-14T02:01:10;5.75;;;2.33;;
39242;SDS011;29823;47.404;8.566;2023-12-14T02:03:44;5.10;;;2.10;;
39242;SDS011;29823;47.404;8.566;2023-12-14T02:06:12;2.88;;;2.33;;
39242;SDS011;29823;47.404;8.566;2023-12-14T02:08:40;4.00;;;2.28;;
39242;SDS011;29823;47.404;8.566;2023-12-14T02:11:10;3.55;;;2.55;;
39242;SDS011;29823;47.404;8.566;2023-12-14T02:13:38;2.90;;;2.17;;
39242;SDS011;29823;47.404;8.566;2023-12-14T02:16:06;5.32;;;2.47;;
39242;SDS011;29823;47.404;8.566;2023-12-14T02:18:34;5.15;;;2.47;;
39242;SDS011;29823;47.404;8.566;2023-12-14T02:21:02;4.10;;;2.22;;
39242;SDS011;29823;47.404;8.566;2023-12-14T02:23:31;4.90;;;2.20;;
39242;SDS011;29823;47.404;8.566;2023-12-14T02:25:59;3.67;;;2.72;;
39242;SDS011;29823;47.404;8.566;2023-12-14T02:28:27;3.85;;;2.63;;
39242;SDS011;29823;47.404;8.566;2023-12-14T02:30:55;5.47;;;2.70;;
39242;SDS011;29823;47.404;8.566;2023-12-14T02:33:23;4.55;;;2.58;;
39242;SDS011;29823;47.404;8.566;2023-12-14T02:35:50;4.63;;;3.10;;
39242;SDS011;29823;47.404;8.566;2023-12-14T02:38:18;7.05;;;3.00;;
39242;SDS011;29823;47.404;8.566;2023-12-14T02:40:47;4.78;;;2.95;;
39242;SDS011;29823;47.404;8.566;2023-12-14T02:43:16;4.70;;;2.97;;
39242;SDS011;29823;47.404;8.566;2023-12-14T02:45:44;5.40;;;2.85;;
39242;SDS011;29823;47.404;8.566;2023-12-14T02:48:12;5.50;;;3.00;;
39242;SDS011;29823;47.404;8.566;2023-12-14T02:50:40;4.40;;;2.97;;
39242;SDS011;29823;47.404;8.566;2023-12-14T02:53:07;4.10;;;2.72;;
39242;SDS011;29823;47.404;8.566;2023-12-14T02:55:35;3.15;;;2.28;;
39242;SDS011;29823;47.404;8.566;2023-12-14T02:58:04;3.20;;;2.42;;
39242;SDS011;29823;47.404;8.566;2023-12-14T03:00:32;5.13;;;1.98;;
39242;SDS011;29823;47.404;8.566;2023-12-14T03:02:59;3.15;;;2.15;;
39242;SDS011;29823;47.404;8.566;2023-12-14T03:05:27;4.93;;;2.10;;
39242;SDS011;29823;47.404;8.566;2023-12-14T03:07:55;4.38;;;2.40;;
39242;SDS011;29823;47.404;8.566;2023-12-14T03:10:23;4.63;;;1.85;;
39242;SDS011;29823;47.404;8.566;2023-12-14T03:12:50;3.35;;;2.00;;
39242;SDS011;29823;47.404;8.566;2023-12-14T03:15:20;3.88;;;1.98;;
39242;SDS011;29823;47.404;8.566;2023-12-14T03:17:48;3.75;;;2.22;;
39242;SDS011;29823;47.404;8.566;2023-12-14T03:20:16;3.60;;;1.80;;
39242;SDS011;29823;47.404;8.566;2023-12-14T03:22:43;2.42;;;1.75;;
39242;SDS011;29823;47.404;8.566;2023-12-14T03:25:11;2.60;;;1.75;;
39242;SDS011;29823;47.404;8.566;2023-12-14T03:27:39;3.33;;;2.10;;
39242;SDS011;29823;47.404;8.566;2023-12-14T03:30:07;2.10;;;1.67;;
39242;SDS011;29823;47.404;8.566;2023-12-14T03:32:38;3.00;;;1.50;;
39242;SDS011;29823;47.404;8.566;2023-12-14T03:35:06;1.98;;;1.73;;
39242;SDS011;29823;47.404;8.566;2023-12-14T03:37:34;3.38;;;1.55;;
39242;SDS011;29823;47.404;8.566;2023-12-14T03:40:03;1.42;;;1.33;;
39242;SDS011;29823;47.404;8.566;2023-12-14T03:42:31;3.90;;;1.73;;
39242;SDS011;29823;47.404;8.566;2023-12-14T03:44:58;3.22;;;1.55;;
39242;SDS011;29823;47.404;8.566;2023-12-14T03:47:26;2.72;;;2.03;;
39242;SDS011;29823;47.404;8.566;2023-12-14T03:49:55;2.30;;;1.70;;
39242;SDS011;29823;47.404;8.566;2023-12-14T03:52:23;5.95;;;1.60;;
39242;SDS011;29823;47.404;8.566;2023-12-14T03:54:50;2.17;;;1.58;;
39242;SDS011;29823;47.404;8.566;2023-12-14T03:57:18;3.00;;;1.60;;
39242;SDS011;29823;47.404;8.566;2023-12-14T03:59:45;2.15;;;1.60;;
39242;SDS011;29823;47.404;8.566;2023-12-14T04:02:13;3.05;;;1.60;;
39242;SDS011;29823;47.404;8.566;2023-12-14T04:04:40;3.08;;;1.90;;
39242;SDS011;29823;47.404;8.566;2023-12-14T04:07:09;2.95;;;1.83;;
39242;SDS011;29823;47.404;8.566;2023-12-14T04:09:37;1.73;;;1.42;;
39242;SDS011;29823;47.404;8.566;2023-12-14T04:12:05;2.47;;;1.85;;
39242;SDS011;29823;47.404;8.566;2023-12-14T04:14:32;2.13;;;1.52;;
39242;SDS011;29823;47.404;8.566;2023-12-14T04:17:00;3.22;;;1.70;;
39242;SDS011;29823;47.404;8.566;2023-12-14T04:19:28;3.20;;;2.03;;
39242;SDS011;29823;47.404;8.566;2023-12-14T04:21:55;2.30;;;1.90;;
39242;SDS011;29823;47.404;8.566;2023-12-14T04:24:24;2.38;;;1.80;;
39242;SDS011;29823;47.404;8.566;2023-12-14T04:26:52;2.40;;;1.70;;
39242;SDS011;29823;47.404;8.566;2023-12-14T04:29:20;3.65;;;2.03;;
39242;SDS011;29823;47.404;8.566;2023-12-14T04:31:47;3.95;;;1.80;;
39242;SDS011;29823;47.404;8.566;2023-12-14T04:34:16;4.90;;;2.05;;
39242;SDS011;29823;47.404;8.566;2023-12-14T04:36:45;3.47;;;2.55;;
39242;SDS011;29823;47.404;8.566;2023-12-14T04:39:14;3.20;;;2.40;;
39242;SDS011;29823;47.404;8.566;2023-12-14T04:41:44;4.30;;;3.15;;
39242;SDS011;29823;47.404;8.566;2023-12-14T04:44:12;5.72;;;2.78;;
39242;SDS011;29823;47.404;8.566;2023-12-14T04:46:40;3.58;;;2.55;;
39242;SDS011;29823;47.404;8.566;2023-12-14T04:49:07;3.58;;;2.42;;
39242;SDS011;29823;47.404;8.566;2023-12-14T04:51:35;4.65;;;3.15;;
39242;SDS011;29823;47.404;8.566;2023-12-14T04:54:03;5.47;;;2.85;;
39242;SDS011;29823;47.404;8.566;2023-12-14T04:56:31;4.70;;;3.30;;
39242;SDS011;29823;47.404;8.566;2023-12-14T04:59:00;5.35;;;3.08;;
39242;SDS011;29823;47.404;8.566;2023-12-14T05:01:27;5.15;;;3.30;;
39242;SDS011;29823;47.404;8.566;2023-12-14T05:03:59;5.72;;;3.25;;
39242;SDS011;29823;47.404;8.566;2023-12-14T05:06:27;4.68;;;3.33;;
39242;SDS011;29823;47.404;8.566;2023-12-14T05:08:55;3.60;;;2.70;;
39242;SDS011;29823;47.404;8.566;2023-12-14T05:11:24;4.50;;;2.70;;
39242;SDS011;29823;47.404;8.566;2023-12-14T05:13:52;4.95;;;3.28;;
39242;SDS011;29823;47.404;8.566;2023-12-14T05:16:21;4.75;;;3.28;;
39242;SDS011;29823;47.404;8.566;2023-12-14T05:18:48;4.88;;;3.40;;
39242;SDS011;29823;47.404;8.566;2023-12-14T05:21:16;5.20;;;3.53;;
39242;SDS011;29823;47.404;8.566;2023-12-14T05:23:44;6.53;;;4.25;;
39242;SDS011;29823;47.404;8.566;2023-12-14T05:26:12;4.70;;;3.63;;
39242;SDS011;29823;47.404;8.566;2023-12-14T05:28:40;8.30;;;5.38;;
39242;SDS011;29823;47.404;8.566;2023-12-14T05:31:07;6.93;;;4.47;;
39242;SDS011;29823;47.404;8.566;2023-12-14T05:33:37;8.07;;;4.90;;
39242;SDS011;29823;47.404;8.566;2023-12-14T05:36:05;8.25;;;5.47;;
39242;SDS011;29823;47.404;8.566;2023-12-14T05:38:37;10.93;;;5.57;;
39242;SDS011;29823;47.404;8.566;2023-12-14T05:41:05;10.27;;;5.80;;
39242;SDS011;29823;47.404;8.566;2023-12-14T05:43:33;9.77;;;5.90;;
39242;SDS011;29823;47.404;8.566;2023-12-14T05:46:00;9.50;;;6.45;;
39242;SDS011;29823;47.404;8.566;2023-12-14T05:48:28;11.45;;;6.20;;
39242;SDS011;29823;47.404;8.566;2023-12-14T05:50:59;10.65;;;6.45;;
39242;SDS011;29823;47.404;8.566;2023-12-14T05:53:27;9.70;;;6.43;;
39242;SDS011;29823;47.404;8.566;2023-12-14T05:55:55;11.60;;;6.55;;
39242;SDS011;29823;47.404;8.566;2023-12-14T05:58:23;12.10;;;5.93;;
39242;SDS011;29823;47.404;8.566;2023-12-14T06:00:50;10.45;;;6.05;;
39242;SDS011;29823;47.404;8.566;2023-12-14T06:03:18;11.00;;;6.45;;
39242;SDS011;29823;47.404;8.566;2023-12-14T06:05:46;12.63;;;6.70;;
39242;SDS011;29823;47.404;8.566;2023-12-14T06:08:15;10.00;;;6.13;;
39242;SDS011;29823;47.404;8.566;2023-12-14T06:10:42;8.95;;;6.22;;
39242;SDS011;29823;47.404;8.566;2023-12-14T06:13:10;10.20;;;6.05;;
39242;SDS011;29823;47.404;8.566;2023-12-14T06:15:38;11.88;;;7.13;;
39242;SDS011;29823;47.404;8.566;2023-12-14T06:18:05;9.20;;;6.50;;
39242;SDS011;29823;47.404;8.566;2023-12-14T06:20:33;9.00;;;6.13;;
39242;SDS011;29823;47.404;8.566;2023-12-14T06:23:00;9.85;;;6.30;;
39242;SDS011;29823;47.404;8.566;2023-12-14T06:25:29;8.10;;;5.93;;
39242;SDS011;29823;47.404;8.566;2023-12-14T06:27:57;9.23;;;6.25;;
39242;SDS011;29823;47.404;8.566;2023-12-14T06:30:25;11.15;;;6.30;;
39242;SDS011;29823;47.404;8.566;2023-12-14T06:32:52;9.15;;;6.10;;
39242;SDS011;29823;47.404;8.566;2023-12-14T06:35:20;10.13;;;6.35;;
39242;SDS011;29823;47.404;8.566;2023-12-14T06:37:48;10.45;;;6.78;;
39242;SDS011;29823;47.404;8.566;2023-12-14T06:40:16;8.32;;;5.70;;
39242;SDS011;29823;47.404;8.566;2023-12-14T06:42:45;9.48;;;6.22;;
39242;SDS011;29823;47.404;8.566;2023-12-14T06:45:12;9.82;;;6.43;;
39242;SDS011;29823;47.404;8.566;2023-12-14T06:47:40;11.35;;;6.70;;
39242;SDS011;29823;47.404;8.566;2023-12-14T06:50:09;13.15;;;6.18;;
39242;SDS011;29823;47.404;8.566;2023-12-14T06:52:37;13.98;;;6.93;;
39242;SDS011;29823;47.404;8.566;2023-12-14T06:55:06;9.55;;;6.65;;
39242;SDS011;29823;47.404;8.566;2023-12-14T06:57:34;9.23;;;6.57;;
39242;SDS011;29823;47.404;8.566;2023-12-14T07:00:03;12.10;;;5.95;;
39242;SDS011;29823;47.404;8.566;2023-12-14T07:02:31;9.38;;;6.25;;
39242;SDS011;29823;47.404;8.566;2023-12-14T07:04:59;10.63;;;7.00;;
39242;SDS011;29823;47.404;8.566;2023-12-14T07:07:28;9.15;;;5.38;;
39242;SDS011;29823;47.404;8.566;2023-12-14T07:09:55;13.48;;;7.30;;
39242;SDS011;29823;47.404;8.566;2023-12-14T07:12:23;9.98;;;6.95;;
39242;SDS011;29823;47.404;8.566;2023-12-14T07:14:50;10.60;;;7.03;;
39242;SDS011;29823;47.404;8.566;2023-12-14T07:17:19;9.90;;;6.65;;
39242;SDS011;29823;47.404;8.566;2023-12-14T07:19:47;9.30;;;5.90;;
39242;SDS011;29823;47.404;8.566;2023-12-14T07:22:15;11.68;;;5.82;;
39242;SDS011;29823;47.404;8.566;2023-12-14T07:24:43;7.93;;;5.82;;
39242;SDS011;29823;47.404;8.566;2023-12-14T07:27:21;10.40;;;5.80;;
39242;SDS011;29823;47.404;8.566;2023-12-14T07:29:49;9.07;;;5.22;;
39242;SDS011;29823;47.404;8.566;2023-12-14T07:32:16;8.23;;;5.43;;
39242;SDS011;29823;47.404;8.566;2023-12-14T07:34:46;9.77;;;5.22;;
39242;SDS011;29823;47.404;8.566;2023-12-14T07:37:14;10.02;;;5.22;;
39242;SDS011;29823;47.404;8.566;2023-12-14T07:39:41;6.78;;;4.57;;
39242;SDS011;29823;47.404;8.566;2023-12-14T07:42:09;8.23;;;5.15;;
39242;SDS011;29823;47.404;8.566;2023-12-14T07:44:36;14.95;;;5.30;;
39242;SDS011;29823;47.404;8.566;2023-12-14T07:47:06;8.60;;;4.90;;
39242;SDS011;29823;47.404;8.566;2023-12-14T07:49:34;8.30;;;4.10;;
39242;SDS011;29823;47.404;8.566;2023-12-14T07:52:04;6.90;;;4.38;;
39242;SDS011;29823;47.404;8.566;2023-12-14T07:54:31;6.43;;;3.70;;
39242;SDS011;29823;47.404;8.566;2023-12-14T07:56:59;5.07;;;3.88;;
39242;SDS011;29823;47.404;8.566;2023-12-14T07:59:27;5.43;;;3.38;;
39242;SDS011;29823;47.404;8.566;2023-12-14T08:01:56;5.30;;;3.60;;
39242;SDS011;29823;47.404;8.566;2023-12-14T08:04:24;9.02;;;3.75;;
39242;SDS011;29823;47.404;8.566;2023-12-14T08:06:51;6.75;;;3.55;;
39242;SDS011;29823;47.404;8.566;2023-12-14T08:09:20;6.30;;;3.65;;
39242;SDS011;29823;47.404;8.566;2023-12-14T08:11:48;4.00;;;3.03;;
39242;SDS011;29823;47.404;8.566;2023-12-14T08:14:18;10.43;;;5.20;;
39242;SDS011;29823;47.404;8.566;2023-12-14T08:16:45;7.55;;;3.10;;
39242;SDS011;29823;47.404;8.566;2023-12-14T08:19:13;7.05;;;2.95;;
39242;SDS011;29823;47.404;8.566;2023-12-14T08:21:41;4.80;;;2.90;;
39242;SDS011;29823;47.404;8.566;2023-12-14T08:24:08;4.70;;;2.97;;
39242;SDS011;29823;47.404;8.566;2023-12-14T08:26:37;4.90;;;2.75;;
39242;SDS011;29823;47.404;8.566;2023-12-14T08:29:05;3.80;;;2.50;;
39242;SDS011;29823;47.404;8.566;2023-12-14T08:31:32;4.25;;;2.80;;
39242;SDS011;29823;47.404;8.566;2023-12-14T08:34:00;3.63;;;2.55;;
39242;SDS011;29823;47.404;8.566;2023-12-14T08:36:28;3.33;;;2.20;;
39242;SDS011;29823;47.404;8.566;2023-12-14T08:38:56;9.35;;;3.10;;
39242;SDS011;29823;47.404;8.566;2023-12-14T08:41:24;3.83;;;2.78;;
39242;SDS011;29823;47.404;8.566;2023-12-14T08:43:54;6.38;;;2.70;;
39242;SDS011;29823;47.404;8.566;2023-12-14T08:46:22;3.38;;;2.05;;
39242;SDS011;29823;47.404;8.566;2023-12-14T08:48:50;4.15;;;2.38;;
39242;SDS011;29823;47.404;8.566;2023-12-14T08:51:19;4.95;;;2.28;;
39242;SDS011;29823;47.404;8.566;2023-12-14T08:53:47;5.18;;;2.35;;
39242;SDS011;29823;47.404;8.566;2023-12-14T08:56:15;3.10;;;2.17;;
39242;SDS011;29823;47.404;8.566;2023-12-14T08:58:42;3.55;;;2.20;;
39242;SDS011;29823;47.404;8.566;2023-12-14T09:01:11;3.72;;;2.40;;
39242;SDS011;29823;47.404;8.566;2023-12-14T09:03:39;2.65;;;2.00;;
39242;SDS011;29823;47.404;8.566;2023-12-14T09:06:07;4.10;;;2.20;;
39242;SDS011;29823;47.404;8.566;2023-12-14T09:08:34;3.13;;;1.70;;
39242;SDS011;29823;47.404;8.566;2023-12-14T09:11:02;2.17;;;1.60;;
39242;SDS011;29823;47.404;8.566;2023-12-14T09:13:30;4.05;;;2.08;;
39242;SDS011;29823;47.404;8.566;2023-12-14T09:15:57;3.00;;;1.80;;
39242;SDS011;29823;47.404;8.566;2023-12-14T09:18:26;4.60;;;1.83;;
39242;SDS011;29823;47.404;8.566;2023-12-14T09:20:54;4.15;;;1.67;;
39242;SDS011;29823;47.404;8.566;2023-12-14T09:23:22;2.00;;;1.60;;
39242;SDS011;29823;47.404;8.566;2023-12-14T09:25:49;2.75;;;1.90;;
39242;SDS011;29823;47.404;8.566;2023-12-14T09:28:17;9.68;;;1.98;;
39242;SDS011;29823;47.404;8.566;2023-12-14T09:30:45;4.10;;;1.73;;
39242;SDS011;29823;47.404;8.566;2023-12-14T09:33:12;2.42;;;1.75;;
39242;SDS011;29823;47.404;8.566;2023-12-14T09:35:42;4.13;;;1.73;;
39242;SDS011;29823;47.404;8.566;2023-12-14T09:38:10;3.08;;;1.52;;
39242;SDS011;29823;47.404;8.566;2023-12-14T09:40:41;2.10;;;1.50;;
39242;SDS011;29823;47.404;8.566;2023-12-14T09:43:08;2.63;;;1.40;;
39242;SDS011;29823;47.404;8.566;2023-12-14T09:45:36;2.97;;;1.80;;
39242;SDS011;29823;47.404;8.566;2023-12-14T09:48:04;2.13;;;1.35;;
39242;SDS011;29823;47.404;8.566;2023-12-14T09:50:32;1.50;;;1.40;;
39242;SDS011;29823;47.404;8.566;2023-12-14T09:53:02;2.58;;;1.55;;
39242;SDS011;29823;47.404;8.566;2023-12-14T09:55:30;2.13;;;1.50;;
39242;SDS011;29823;47.404;8.566;2023-12-14T09:57:58;3.70;;;1.67;;
39242;SDS011;29823;47.404;8.566;2023-12-14T10:00:34;3.42;;;1.60;;
39242;SDS011;29823;47.404;8.566;2023-12-14T10:03:21;3.60;;;1.77;;
39242;SDS011;29823;47.404;8.566;2023-12-14T10:05:49;1.75;;;1.45;;
39242;SDS011;29823;47.404;8.566;2023-12-14T10:08:18;3.25;;;1.50;;
39242;SDS011;29823;47.404;8.566;2023-12-14T10:10:47;3.17;;;1.30;;
39242;SDS011;29823;47.404;8.566;2023-12-14T10:13:17;2.42;;;1.58;;
39242;SDS011;29823;47.404;8.566;2023-12-14T10:15:45;1.25;;;1.13;;
39242;SDS011;29823;47.404;8.566;2023-12-14T10:18:13;1.75;;;1.10;;
39242;SDS011;29823;47.404;8.566;2023-12-14T10:23:13;4.40;;;1.58;;
39242;SDS011;29823;47.404;8.566;2023-12-14T10:25:42;3.45;;;1.40;;
39242;SDS011;29823;47.404;8.566;2023-12-14T10:28:11;2.00;;;1.27;;
39242;SDS011;29823;47.404;8.566;2023-12-14T10:30:39;5.05;;;1.23;;
39242;SDS011;29823;47.404;8.566;2023-12-14T10:33:07;1.63;;;1.50;;
39242;SDS011;29823;47.404;8.566;2023-12-14T10:35:35;2.33;;;1.38;;
39242;SDS011;29823;47.404;8.566;2023-12-14T10:38:03;1.80;;;1.50;;
39242;SDS011;29823;47.404;8.566;2023-12-14T10:40:31;4.63;;;1.50;;
39242;SDS011;29823;47.404;8.566;2023-12-14T10:43:00;5.90;;;1.80;;
39242;SDS011;29823;47.404;8.566;2023-12-14T10:45:32;2.97;;;2.10;;
39242;SDS011;29823;47.404;8.566;2023-12-14T10:48:00;2.58;;;1.83;;
39242;SDS011;29823;47.404;8.566;2023-12-14T10:50:31;3.83;;;1.88;;
39242;SDS011;29823;47.404;8.566;2023-12-14T10:52:58;3.00;;;1.88;;
39242;SDS011;29823;47.404;8.566;2023-12-14T10:55:28;3.58;;;1.63;;
39242;SDS011;29823;47.404;8.566;2023-12-14T10:57:58;3.08;;;1.80;;
39242;SDS011;29823;47.404;8.566;2023-12-14T11:00:28;2.50;;;1.90;;
39242;SDS011;29823;47.404;8.566;2023-12-14T11:02:56;2.63;;;2.03;;
39242;SDS011;29823;47.404;8.566;2023-12-14T11:05:26;3.15;;;2.17;;
39242;SDS011;29823;47.404;8.566;2023-12-14T11:07:59;3.63;;;2.00;;
39242;SDS011;29823;47.404;8.566;2023-12-14T11:10:36;4.10;;;2.30;;
39242;SDS011;29823;47.404;8.566;2023-12-14T11:13:05;3.17;;;2.00;;
39242;SDS011;29823;47.404;8.566;2023-12-14T11:15:37;5.15;;;2.20;;
39242;SDS011;29823;47.404;8.566;2023-12-14T11:18:21;2.83;;;1.75;;
39242;SDS011;29823;47.404;8.566;2023-12-14T11:20:49;4.65;;;2.13;;
39242;SDS011;29823;47.404;8.566;2023-12-14T11:23:26;5.30;;;2.10;;
39242;SDS011;29823;47.404;8.566;2023-12-14T11:25:57;4.53;;;2.80;;
39242;SDS011;29823;47.404;8.566;2023-12-14T11:28:26;5.15;;;2.60;;
39242;SDS011;29823;47.404;8.566;2023-12-14T11:30:57;3.15;;;2.00;;
39242;SDS011;29823;47.404;8.566;2023-12-14T11:33:25;2.85;;;2.03;;
39242;SDS011;29823;47.404;8.566;2023-12-14T11:35:55;2.75;;;1.92;;
39242;SDS011;29823;47.404;8.566;2023-12-14T11:38:23;4.10;;;1.90;;
39242;SDS011;29823;47.404;8.566;2023-12-14T11:40:51;4.55;;;2.15;;
39242;SDS011;29823;47.404;8.566;2023-12-14T11:43:19;3.63;;;2.20;;
39242;SDS011;29823;47.404;8.566;2023-12-14T11:45:52;4.07;;;2.28;;
39242;SDS011;29823;47.404;8.566;2023-12-14T11:48:22;3.05;;;2.30;;
39242;SDS011;29823;47.404;8.566;2023-12-14T11:50:49;3.17;;;2.15;;
39242;SDS011;29823;47.404;8.566;2023-12-14T11:53:18;3.47;;;2.17;;
39242;SDS011;29823;47.404;8.566;2023-12-14T11:55:46;3.53;;;2.42;;
39242;SDS011;29823;47.404;8.566;2023-12-14T11:58:14;4.03;;;2.15;;
39242;SDS011;29823;47.404;8.566;2023-12-14T12:00:43;3.75;;;1.90;;
39242;SDS011;29823;47.404;8.566;2023-12-14T12:03:13;3.60;;;2.20;;
39242;SDS011;29823;47.404;8.566;2023-12-14T12:05:44;4.03;;;2.13;;
39242;SDS011;29823;47.404;8.566;2023-12-14T12:08:13;3.15;;;2.00;;
39242;SDS011;29823;47.404;8.566;2023-12-14T12:10:42;5.05;;;2.22;;
39242;SDS011;29823;47.404;8.566;2023-12-14T12:13:11;4.22;;;2.17;;
39242;SDS011;29823;47.404;8.566;2023-12-14T12:15:39;3.83;;;2.00;;
39242;SDS011;29823;47.404;8.566;2023-12-14T12:18:07;7.25;;;2.70;;
39242;SDS011;29823;47.404;8.566;2023-12-14T12:20:35;2.70;;;2.03;;
39242;SDS011;29823;47.404;8.566;2023-12-14T12:23:04;3.58;;;2.60;;
39242;SDS011;29823;47.404;8.566;2023-12-14T12:25:32;2.92;;;2.38;;
39242;SDS011;29823;47.404;8.566;2023-12-14T12:28:00;2.65;;;2.15;;
39242;SDS011;29823;47.404;8.566;2023-12-14T12:30:27;6.20;;;2.47;;
39242;SDS011;29823;47.404;8.566;2023-12-14T12:32:55;5.05;;;2.15;;
39242;SDS011;29823;47.404;8.566;2023-12-14T12:35:24;4.30;;;2.45;;
39242;SDS011;29823;47.404;8.566;2023-12-14T12:37:52;4.18;;;2.60;;
39242;SDS011;29823;47.404;8.566;2023-12-14T12:40:22;3.88;;;2.25;;
39242;SDS011;29823;47.404;8.566;2023-12-14T12:42:52;3.53;;;2.13;;
39242;SDS011;29823;47.404;8.566;2023-12-14T12:45:20;3.28;;;2.20;;
39242;SDS011;29823;47.404;8.566;2023-12-14T12:47:48;3.55;;;2.28;;
39242;SDS011;29823;47.404;8.566;2023-12-14T12:50:17;5.50;;;2.00;;
39242;SDS011;29823;47.404;8.566;2023-12-14T12:52:44;3.30;;;2.13;;
39242;SDS011;29823;47.404;8.566;2023-12-14T12:55:15;3.63;;;2.15;;
39242;SDS011;29823;47.404;8.566;2023-12-14T12:57:43;4.30;;;2.35;;
39242;SDS011;29823;47.404;8.566;2023-12-14T13:00:11;3.25;;;1.95;;
39242;SDS011;29823;47.404;8.566;2023-12-14T13:02:39;2.75;;;2.10;;
39242;SDS011;29823;47.404;8.566;2023-12-14T13:05:07;3.63;;;1.90;;
39242;SDS011;29823;47.404;8.566;2023-12-14T13:07:38;3.00;;;2.08;;
39242;SDS011;29823;47.404;8.566;2023-12-14T13:10:06;6.18;;;2.30;;
39242;SDS011;29823;47.404;8.566;2023-12-14T13:12:54;8.05;;;2.15;;
39242;SDS011;29823;47.404;8.566;2023-12-14T13:15:22;5.72;;;2.28;;
39242;SDS011;29823;47.404;8.566;2023-12-14T13:17:52;2.92;;;2.08;;
39242;SDS011;29823;47.404;8.566;2023-12-14T13:20:20;5.85;;;2.63;;
39242;SDS011;29823;47.404;8.566;2023-12-14T13:22:48;6.50;;;2.28;;
39242;SDS011;29823;47.404;8.566;2023-12-14T13:25:16;4.13;;;2.47;;
39242;SDS011;29823;47.404;8.566;2023-12-14T13:27:44;4.70;;;2.50;;
39242;SDS011;29823;47.404;8.566;2023-12-14T13:30:13;3.25;;;2.10;;
39242;SDS011;29823;47.404;8.566;2023-12-14T13:32:44;2.05;;;1.80;;
39242;SDS011;29823;47.404;8.566;2023-12-14T13:35:12;5.53;;;2.50;;
39242;SDS011;29823;47.404;8.566;2023-12-14T13:37:40;2.85;;;1.75;;
39242;SDS011;29823;47.404;8.566;2023-12-14T13:40:09;3.33;;;2.35;;
39242;SDS011;29823;47.404;8.566;2023-12-14T13:42:40;2.70;;;2.20;;
39242;SDS011;29823;47.404;8.566;2023-12-14T13:45:26;10.35;;;2.70;;
39242;SDS011;29823;47.404;8.566;2023-12-14T13:47:56;3.67;;;1.95;;
39242;SDS011;29823;47.404;8.566;2023-12-14T13:50:24;2.10;;;1.75;;
39242;SDS011;29823;47.404;8.566;2023-12-14T13:52:54;2.83;;;1.67;;
39242;SDS011;29823;47.404;8.566;2023-12-14T13:55:22;2.50;;;1.73;;
39242;SDS011;29823;47.404;8.566;2023-12-14T13:57:49;2.67;;;1.80;;
39242;SDS011;29823;47.404;8.566;2023-12-14T14:00:17;3.97;;;1.85;;
39242;SDS011;29823;47.404;8.566;2023-12-14T14:02:47;4.20;;;2.22;;
39242;SDS011;29823;47.404;8.566;2023-12-14T14:05:15;5.45;;;1.98;;
39242;SDS011;29823;47.404;8.566;2023-12-14T14:07:43;5.28;;;1.85;;
39242;SDS011;29823;47.404;8.566;2023-12-14T14:10:11;3.47;;;1.88;;
39242;SDS011;29823;47.404;8.566;2023-12-14T14:12:39;2.75;;;1.83;;
39242;SDS011;29823;47.404;8.566;2023-12-14T14:15:07;2.38;;;1.63;;
39242;SDS011;29823;47.404;8.566;2023-12-14T14:17:34;3.05;;;1.67;;
39242;SDS011;29823;47.404;8.566;2023-12-14T14:20:04;2.85;;;1.65;;
39242;SDS011;29823;47.404;8.566;2023-12-14T14:22:33;3.38;;;1.80;;
39242;SDS011;29823;47.404;8.566;2023-12-14T14:25:01;5.20;;;1.95;;
39242;SDS011;29823;47.404;8.566;2023-12-14T14:27:29;6.03;;;3.03;;
39242;SDS011;29823;47.404;8.566;2023-12-14T14:29:57;4.38;;;2.40;;
39242;SDS011;29823;47.404;8.566;2023-12-14T14:32:24;5.75;;;2.33;;
39242;SDS011;29823;47.404;8.566;2023-12-14T14:34:52;2.83;;;1.98;;
39242;SDS011;29823;47.404;8.566;2023-12-14T14:37:24;3.15;;;2.25;;
39242;SDS011;29823;47.404;8.566;2023-12-14T14:39:51;3.88;;;2.22;;
39242;SDS011;29823;47.404;8.566;2023-12-14T14:42:19;3.08;;;2.20;;
39242;SDS011;29823;47.404;8.566;2023-12-14T14:44:47;2.95;;;2.00;;
39242;SDS011;29823;47.404;8.566;2023-12-14T14:47:14;4.82;;;2.03;;
39242;SDS011;29823;47.404;8.566;2023-12-14T14:49:42;4.88;;;1.80;;
39242;SDS011;29823;47.404;8.566;2023-12-14T14:52:09;2.63;;;1.92;;
39242;SDS011;29823;47.404;8.566;2023-12-14T14:54:39;1.90;;;1.40;;